sensor_id;sensor_type;location;lat;lon;timestamp;pressure;altitude;pressure_sealevel;temperature;humidity
31088;BME280;17745;55.914;37.554;2024-01-30T00:00:07;100166.69;;;2.45;62.95
31088;BME280;17745;55.914;37.554;2024-01-30T00:02:39;100162.72;;;2.49;62.82
31088;BME280;17745;55.914;37.554;2024-01-30T00:05:13;100168.78;;;2.50;62.83
31088;BME280;17745;55.914;37.554;2024-01-30T00:07:44;100151.47;;;2.49;62.81
31088;BME280;17745;55.914;37.554;2024-01-30T00:10:14;100161.28;;;2.47;62.86
31088;BME280;17745;55.914;37.554;2024-01-30T00:12:46;100168.16;;;2.48;62.84
31088;BME280;17745;55.914;37.554;2024-01-30T00:15:43;100165.34;;;2.49;62.85
31088;BME280;17745;55.914;37.554;2024-01-30T00:18:22;100160.38;;;2.54;62.82
31088;BME280;17745;55.914;37.554;2024-01-30T00:20:57;100180.78;;;2.59;62.68
31088;BME280;17745;55.914;37.554;2024-01-30T00:24:10;100157.44;;;2.57;62.70
31088;BME280;17745;55.914;37.554;2024-01-30T00:26:53;100157.62;;;2.56;62.65
31088;BME280;17745;55.914;37.554;2024-01-30T00:29:33;100153.38;;;2.55;62.75
31088;BME280;17745;55.914;37.554;2024-01-30T00:32:19;100140.31;;;2.55;62.72
31088;BME280;17745;55.914;37.554;2024-01-30T00:34:53;100148.16;;;2.55;62.71
31088;BME280;17745;55.914;37.554;2024-01-30T00:37:39;100143.06;;;2.53;62.69
31088;BME280;17745;55.914;37.554;2024-01-30T00:40:27;100152.91;;;2.51;62.71
31088;BME280;17745;55.914;37.554;2024-01-30T00:43:10;100154.25;;;2.47;62.81
31088;BME280;17745;55.914;37.554;2024-01-30T00:46:01;100154.09;;;2.49;62.87
31088;BME280;17745;55.914;37.554;2024-01-30T01:10:30;100148.97;;;2.55;62.75
31088;BME280;17745;55.914;37.554;2024-01-30T01:13:03;100136.53;;;2.57;62.66
31088;BME280;17745;55.914;37.554;2024-01-30T01:15:36;100136.34;;;2.59;62.68
31088;BME280;17745;55.914;37.554;2024-01-30T01:18:05;100121.28;;;2.61;62.66
31088;BME280;17745;55.914;37.554;2024-01-30T01:20:38;100133.38;;;2.62;62.61
31088;BME280;17745;55.914;37.554;2024-01-30T01:23:14;100127.34;;;2.62;62.63
31088;BME280;17745;55.914;37.554;2024-01-30T01:28:41;100127.97;;;2.64;62.57
31088;BME280;17745;55.914;37.554;2024-01-30T01:31:14;100126.34;;;2.63;62.63
31088;BME280;17745;55.914;37.554;2024-01-30T01:33:48;100112.28;;;2.64;62.58
31088;BME280;17745;55.914;37.554;2024-01-30T01:36:23;100095.16;;;2.61;62.59
31088;BME280;17745;55.914;37.554;2024-01-30T01:38:55;100096.97;;;2.61;62.67
31088;BME280;17745;55.914;37.554;2024-01-30T01:41:29;100114.91;;;2.64;62.75
31088;BME280;17745;55.914;37.554;2024-01-30T01:44:05;100115.63;;;2.72;62.59
31088;BME280;17745;55.914;37.554;2024-01-30T01:46:37;100119.34;;;2.78;62.54
31088;BME280;17745;55.914;37.554;2024-01-30T01:49:10;100117.38;;;2.80;62.53
31088;BME280;17745;55.914;37.554;2024-01-30T01:51:41;100110.16;;;2.82;62.46
31088;BME280;17745;55.914;37.554;2024-01-30T01:54:13;100128.25;;;2.84;62.42
31088;BME280;17745;55.914;37.554;2024-01-30T01:56:48;100114.41;;;2.83;62.49
31088;BME280;17745;55.914;37.554;2024-01-30T02:02:52;100116.28;;;2.90;62.41
31088;BME280;17745;55.914;37.554;2024-01-30T02:05:21;100113.31;;;2.93;62.33
31088;BME280;17745;55.914;37.554;2024-01-30T02:07:53;100117.12;;;2.90;62.45
31088;BME280;17745;55.914;37.554;2024-01-30T02:10:25;100124.13;;;2.90;62.45
31088;BME280;17745;55.914;37.554;2024-01-30T02:12:57;100108.28;;;2.91;62.54
31088;BME280;17745;55.914;37.554;2024-01-30T02:15:28;100120.00;;;2.95;62.45
31088;BME280;17745;55.914;37.554;2024-01-30T02:18:10;100113.94;;;2.95;62.49
31088;BME280;17745;55.914;37.554;2024-01-30T02:21:08;100109.53;;;2.95;62.50
31088;BME280;17745;55.914;37.554;2024-01-30T02:23:42;100108.37;;;2.98;62.42
31088;BME280;17745;55.914;37.554;2024-01-30T02:26:35;100112.78;;;2.97;62.39
31088;BME280;17745;55.914;37.554;2024-01-30T02:29:14;100114.50;;;3.05;62.28
31088;BME280;17745;55.914;37.554;2024-01-30T02:31:50;100112.50;;;3.07;62.28
31088;BME280;17745;55.914;37.554;2024-01-30T02:34:36;100102.41;;;3.04;62.30
31088;BME280;17745;55.914;37.554;2024-01-30T02:37:12;100100.94;;;3.02;62.43
31088;BME280;17745;55.914;37.554;2024-01-30T02:39:40;100113.66;;;3.05;62.34
31088;BME280;17745;55.914;37.554;2024-01-30T02:42:12;100096.97;;;3.06;62.34
31088;BME280;17745;55.914;37.554;2024-01-30T02:44:43;100114.13;;;3.08;62.36
31088;BME280;17745;55.914;37.554;2024-01-30T02:47:13;100107.28;;;3.07;62.33
31088;BME280;17745;55.914;37.554;2024-01-30T02:49:47;100097.63;;;3.08;62.27
31088;BME280;17745;55.914;37.554;2024-01-30T02:52:23;100108.09;;;3.08;62.28
31088;BME280;17745;55.914;37.554;2024-01-30T02:54:58;100113.34;;;3.08;62.36
31088;BME280;17745;55.914;37.554;2024-01-30T02:57:31;100110.88;;;3.06;62.33
31088;BME280;17745;55.914;37.554;2024-01-30T03:00:09;100118.37;;;3.09;62.23
31088;BME280;17745;55.914;37.554;2024-01-30T03:02:38;100115.13;;;3.07;62.27
31088;BME280;17745;55.914;37.554;2024-01-30T03:05:08;100121.97;;;3.08;62.22
31088;BME280;17745;55.914;37.554;2024-01-30T03:07:57;100120.19;;;3.09;62.31
31088;BME280;17745;55.914;37.554;2024-01-30T03:10:31;100145.37;;;3.10;62.33
31088;BME280;17745;55.914;37.554;2024-01-30T03:13:14;100121.00;;;3.09;62.31
31088;BME280;17745;55.914;37.554;2024-01-30T03:15:51;100138.16;;;3.12;62.31
31088;BME280;17745;55.914;37.554;2024-01-30T03:18:43;100127.69;;;3.12;62.30
31088;BME280;17745;55.914;37.554;2024-01-30T03:21:30;100135.16;;;3.15;62.30
31088;BME280;17745;55.914;37.554;2024-01-30T03:24:08;100132.37;;;3.17;62.26
31088;BME280;17745;55.914;37.554;2024-01-30T03:26:42;100147.34;;;3.23;62.13
31088;BME280;17745;55.914;37.554;2024-01-30T03:29:25;100127.56;;;3.20;62.14
31088;BME280;17745;55.914;37.554;2024-01-30T03:32:00;100126.03;;;3.26;62.11
31088;BME280;17745;55.914;37.554;2024-01-30T03:34:35;100136.50;;;3.26;62.05
31088;BME280;17745;55.914;37.554;2024-01-30T03:37:12;100130.28;;;3.27;62.09
31088;BME280;17745;55.914;37.554;2024-01-30T03:39:44;100132.53;;;3.30;62.06
31088;BME280;17745;55.914;37.554;2024-01-30T03:42:18;100146.63;;;3.29;62.08
31088;BME280;17745;55.914;37.554;2024-01-30T03:44:47;100135.53;;;3.27;62.15
31088;BME280;17745;55.914;37.554;2024-01-30T03:47:20;100147.06;;;3.33;62.05
31088;BME280;17745;55.914;37.554;2024-01-30T03:50:03;100156.72;;;3.32;62.06
31088;BME280;17745;55.914;37.554;2024-01-30T03:52:37;100148.34;;;3.37;62.01
31088;BME280;17745;55.914;37.554;2024-01-30T03:58:26;100154.12;;;3.47;61.68
31088;BME280;17745;55.914;37.554;2024-01-30T04:10:44;100142.00;;;3.31;62.20
31088;BME280;17745;55.914;37.554;2024-01-30T04:14:05;100150.31;;;3.35;62.22
31088;BME280;17745;55.914;37.554;2024-01-30T04:16:39;100150.59;;;3.40;62.08
31088;BME280;17745;55.914;37.554;2024-01-30T04:19:14;100144.81;;;3.45;62.03
31088;BME280;17745;55.914;37.554;2024-01-30T04:21:42;100152.47;;;3.46;62.00
31088;BME280;17745;55.914;37.554;2024-01-30T04:53:29;100151.31;;;3.49;62.07
31088;BME280;17745;55.914;37.554;2024-01-30T05:05:31;100136.03;;;3.67;61.77
31088;BME280;17745;55.914;37.554;2024-01-30T05:21:08;100147.22;;;3.76;61.62
31088;BME280;17745;55.914;37.554;2024-01-30T05:23:47;100150.44;;;3.78;61.64
31088;BME280;17745;55.914;37.554;2024-01-30T05:26:42;100152.91;;;3.80;61.61
31088;BME280;17745;55.914;37.554;2024-01-30T05:29:17;100159.75;;;3.81;61.64
31088;BME280;17745;55.914;37.554;2024-01-30T05:32:21;100164.25;;;3.87;61.55
31088;BME280;17745;55.914;37.554;2024-01-30T05:34:59;100157.12;;;3.81;61.59
31088;BME280;17745;55.914;37.554;2024-01-30T05:37:36;100161.22;;;3.68;61.83
31088;BME280;17745;55.914;37.554;2024-01-30T05:40:24;100156.41;;;3.87;61.40
31088;BME280;17745;55.914;37.554;2024-01-30T05:42:55;100147.56;;;3.73;61.69
31088;BME280;17745;55.914;37.554;2024-01-30T05:45:47;100164.38;;;3.64;61.94
31088;BME280;17745;55.914;37.554;2024-01-30T05:48:21;100156.22;;;3.89;61.31
31088;BME280;17745;55.914;37.554;2024-01-30T05:50:54;100164.97;;;3.96;61.18
31088;BME280;17745;55.914;37.554;2024-01-30T05:57:04;100171.97;;;3.58;62.13
31088;BME280;17745;55.914;37.554;2024-01-30T05:59:37;100178.84;;;3.60;62.06
31088;BME280;17745;55.914;37.554;2024-01-30T06:02:07;100183.69;;;3.63;61.94
31088;BME280;17745;55.914;37.554;2024-01-30T06:04:42;100184.41;;;3.71;61.73
31088;BME280;17745;55.914;37.554;2024-01-30T06:07:47;100175.13;;;3.54;62.22
31088;BME280;17745;55.914;37.554;2024-01-30T06:13:29;100179.28;;;3.33;62.73
31088;BME280;17745;55.914;37.554;2024-01-30T06:16:13;100168.97;;;3.77;61.76
31088;BME280;17745;55.914;37.554;2024-01-30T06:19:03;100174.47;;;3.82;61.65
31088;BME280;17745;55.914;37.554;2024-01-30T06:21:42;100193.63;;;3.67;62.09
31088;BME280;17745;55.914;37.554;2024-01-30T06:24:45;100194.94;;;3.93;61.51
31088;BME280;17745;55.914;37.554;2024-01-30T06:28:01;100197.47;;;4.02;61.28
31088;BME280;17745;55.914;37.554;2024-01-30T06:47:55;100206.37;;;4.07;61.26
31088;BME280;17745;55.914;37.554;2024-01-30T06:51:12;100193.41;;;3.99;61.22
31088;BME280;17745;55.914;37.554;2024-01-30T06:54:52;100208.62;;;3.74;62.01
31088;BME280;17745;55.914;37.554;2024-01-30T06:58:29;100206.19;;;3.72;62.05
31088;BME280;17745;55.914;37.554;2024-01-30T07:01:41;100214.38;;;3.99;61.42
31088;BME280;17745;55.914;37.554;2024-01-30T07:08:18;100218.16;;;4.11;61.30
31088;BME280;17745;55.914;37.554;2024-01-30T07:11:02;100217.53;;;3.94;61.48
31088;BME280;17745;55.914;37.554;2024-01-30T07:13:53;100217.78;;;4.14;61.03
31088;BME280;17745;55.914;37.554;2024-01-30T07:16:57;100229.22;;;3.92;61.81
31088;BME280;17745;55.914;37.554;2024-01-30T07:19:47;100224.88;;;3.54;62.62
31088;BME280;17745;55.914;37.554;2024-01-30T07:22:21;100229.03;;;3.78;62.09
31088;BME280;17745;55.914;37.554;2024-01-30T07:25:09;100239.97;;;3.82;61.88
31088;BME280;17745;55.914;37.554;2024-01-30T07:28:02;100225.03;;;3.97;61.47
31088;BME280;17745;55.914;37.554;2024-01-30T07:31:07;100235.03;;;4.09;61.24
31088;BME280;17745;55.914;37.554;2024-01-30T07:34:14;100238.88;;;3.76;61.93
31088;BME280;17745;55.914;37.554;2024-01-30T07:37:25;100242.66;;;3.74;62.38
31088;BME280;17745;55.914;37.554;2024-01-30T07:43:42;100236.78;;;3.86;62.05
31088;BME280;17745;55.914;37.554;2024-01-30T07:46:13;100245.06;;;4.20;61.19
31088;BME280;17745;55.914;37.554;2024-01-30T07:48:48;100227.59;;;4.27;61.08
31088;BME280;17745;55.914;37.554;2024-01-30T07:51:36;100228.44;;;4.50;60.74
31088;BME280;17745;55.914;37.554;2024-01-30T07:54:16;100227.00;;;4.47;60.87
31088;BME280;17745;55.914;37.554;2024-01-30T07:56:47;100231.16;;;4.41;60.91
31088;BME280;17745;55.914;37.554;2024-01-30T08:11:58;100242.19;;;4.74;60.19
31088;BME280;17745;55.914;37.554;2024-01-30T08:15:00;100244.47;;;4.83;60.24
31088;BME280;17745;55.914;37.554;2024-01-30T08:17:41;100242.47;;;4.85;60.07
31088;BME280;17745;55.914;37.554;2024-01-30T08:20:11;100262.56;;;4.78;59.97
31088;BME280;17745;55.914;37.554;2024-01-30T08:22:41;100240.41;;;4.59;60.19
31088;BME280;17745;55.914;37.554;2024-01-30T08:25:14;100247.47;;;4.80;59.86
31088;BME280;17745;55.914;37.554;2024-01-30T08:27:47;100244.59;;;4.75;59.94
31088;BME280;17745;55.914;37.554;2024-01-30T08:30:15;100244.78;;;4.74;59.80
31088;BME280;17745;55.914;37.554;2024-01-30T08:32:43;100250.03;;;4.74;59.77
31088;BME280;17745;55.914;37.554;2024-01-30T08:35:12;100242.28;;;4.87;59.63
31088;BME280;17745;55.914;37.554;2024-01-30T08:37:42;100242.72;;;4.91;59.62
31088;BME280;17745;55.914;37.554;2024-01-30T08:40:14;100236.00;;;4.81;59.85
31088;BME280;17745;55.914;37.554;2024-01-30T08:45:45;100224.22;;;4.77;59.85
31088;BME280;17745;55.914;37.554;2024-01-30T08:48:15;100225.66;;;4.36;60.50
31088;BME280;17745;55.914;37.554;2024-01-30T08:50:50;100241.41;;;3.99;61.34
31088;BME280;17745;55.914;37.554;2024-01-30T08:53:17;100257.47;;;4.48;60.36
31088;BME280;17745;55.914;37.554;2024-01-30T08:55:50;100256.53;;;4.56;60.24
31088;BME280;17745;55.914;37.554;2024-01-30T08:58:22;100245.56;;;4.31;60.87
31088;BME280;17745;55.914;37.554;2024-01-30T09:03:45;100260.00;;;4.41;60.63
31088;BME280;17745;55.914;37.554;2024-01-30T09:06:18;100239.06;;;3.90;61.96
31088;BME280;17745;55.914;37.554;2024-01-30T09:08:50;100247.19;;;3.80;62.15
31088;BME280;17745;55.914;37.554;2024-01-30T09:11:27;100252.97;;;3.90;62.07
31088;BME280;17745;55.914;37.554;2024-01-30T09:13:57;100251.78;;;3.33;63.80
31088;BME280;17745;55.914;37.554;2024-01-30T09:16:44;100251.78;;;3.33;63.98
31088;BME280;17745;55.914;37.554;2024-01-30T09:20:01;100242.03;;;4.02;62.09
31088;BME280;17745;55.914;37.554;2024-01-30T09:22:32;100243.31;;;4.27;61.40
31088;BME280;17745;55.914;37.554;2024-01-30T09:25:04;100233.16;;;4.03;61.85
31088;BME280;17745;55.914;37.554;2024-01-30T09:27:40;100243.97;;;4.51;60.77
31088;BME280;17745;55.914;37.554;2024-01-30T09:30:12;100225.81;;;4.13;61.52
31088;BME280;17745;55.914;37.554;2024-01-30T09:32:54;100239.03;;;4.05;61.86
31088;BME280;17745;55.914;37.554;2024-01-30T09:35:27;100249.31;;;4.06;61.82
31088;BME280;17745;55.914;37.554;2024-01-30T09:37:56;100231.97;;;4.20;61.47
31088;BME280;17745;55.914;37.554;2024-01-30T09:40:24;100222.59;;;4.33;61.12
31088;BME280;17745;55.914;37.554;2024-01-30T09:42:51;100237.03;;;4.43;60.96
31088;BME280;17745;55.914;37.554;2024-01-30T09:45:23;100240.72;;;4.49;60.91
31088;BME280;17745;55.914;37.554;2024-01-30T09:47:53;100229.00;;;4.67;60.70
31088;BME280;17745;55.914;37.554;2024-01-30T09:50:20;100225.16;;;4.91;60.43
31088;BME280;17745;55.914;37.554;2024-01-30T09:56:09;100230.03;;;4.29;61.55
31088;BME280;17745;55.914;37.554;2024-01-30T09:58:48;100216.53;;;4.10;62.11
31088;BME280;17745;55.914;37.554;2024-01-30T10:01:22;100228.84;;;4.75;60.76
31088;BME280;17745;55.914;37.554;2024-01-30T10:04:00;100227.88;;;5.05;60.46
31088;BME280;17745;55.914;37.554;2024-01-30T10:06:37;100222.78;;;4.96;60.19
31088;BME280;17745;55.914;37.554;2024-01-30T10:09:29;100245.28;;;4.84;60.56
31088;BME280;17745;55.914;37.554;2024-01-30T10:28:38;100212.53;;;5.01;59.75
31088;BME280;17745;55.914;37.554;2024-01-30T10:31:44;100219.38;;;5.03;59.62
31088;BME280;17745;55.914;37.554;2024-01-30T10:34:32;100223.59;;;4.53;60.77
31088;BME280;17745;55.914;37.554;2024-01-30T10:37:15;100226.47;;;5.02;59.73
31088;BME280;17745;55.914;37.554;2024-01-30T10:39:52;100224.34;;;5.19;59.60
31088;BME280;17745;55.914;37.554;2024-01-30T10:42:23;100229.09;;;4.58;60.68
31088;BME280;17745;55.914;37.554;2024-01-30T10:47:43;100211.72;;;5.01;59.53
31088;BME280;17745;55.914;37.554;2024-01-30T10:50:11;100215.44;;;5.13;59.31
31088;BME280;17745;55.914;37.554;2024-01-30T10:52:41;100211.59;;;5.44;59.02
31088;BME280;17745;55.914;37.554;2024-01-30T10:55:10;100219.13;;;5.54;58.87
31088;BME280;17745;55.914;37.554;2024-01-30T10:57:40;100226.19;;;5.54;58.48
31088;BME280;17745;55.914;37.554;2024-01-30T11:00:09;100231.72;;;5.31;58.84
31088;BME280;17745;55.914;37.554;2024-01-30T11:02:36;100238.19;;;5.06;59.31
31088;BME280;17745;55.914;37.554;2024-01-30T11:05:08;100231.09;;;4.78;59.82
31088;BME280;17745;55.914;37.554;2024-01-30T11:07:38;100237.97;;;5.01;59.26
31088;BME280;17745;55.914;37.554;2024-01-30T11:10:06;100234.19;;;5.10;58.98
31088;BME280;17745;55.914;37.554;2024-01-30T11:12:37;100239.28;;;5.19;58.85
31088;BME280;17745;55.914;37.554;2024-01-30T11:15:14;100237.19;;;5.07;59.10
31088;BME280;17745;55.914;37.554;2024-01-30T11:17:45;100242.34;;;4.72;59.62
31088;BME280;17745;55.914;37.554;2024-01-30T11:23:30;100237.59;;;4.02;61.50
31088;BME280;17745;55.914;37.554;2024-01-30T11:26:06;100256.00;;;4.46;60.45
31088;BME280;17745;55.914;37.554;2024-01-30T11:29:27;100253.06;;;4.55;60.21
31088;BME280;17745;55.914;37.554;2024-01-30T11:32:08;100266.19;;;4.77;59.77
31088;BME280;17745;55.914;37.554;2024-01-30T11:34:53;100250.72;;;4.82;59.60
31088;BME280;17745;55.914;37.554;2024-01-30T11:37:55;100258.47;;;4.91;59.52
31088;BME280;17745;55.914;37.554;2024-01-30T11:44:03;100280.59;;;4.60;60.06
31088;BME280;17745;55.914;37.554;2024-01-30T11:49:24;100280.00;;;3.91;62.13
31088;BME280;17745;55.914;37.554;2024-01-30T11:52:22;100264.97;;;3.39;63.18
31088;BME280;17745;55.914;37.554;2024-01-30T11:55:04;100282.84;;;3.66;63.16
31088;BME280;17745;55.914;37.554;2024-01-30T11:57:43;100268.69;;;3.90;62.31
31088;BME280;17745;55.914;37.554;2024-01-30T12:07:19;100277.25;;;4.51;60.88
31088;BME280;17745;55.914;37.554;2024-01-30T12:10:12;100268.41;;;4.52;60.73
31088;BME280;17745;55.914;37.554;2024-01-30T12:13:02;100283.19;;;4.23;61.44
31088;BME280;17745;55.914;37.554;2024-01-30T12:15:38;100282.47;;;4.29;61.34
31088;BME280;17745;55.914;37.554;2024-01-30T12:21:45;100280.97;;;4.41;60.97
31088;BME280;17745;55.914;37.554;2024-01-30T12:30:51;100289.19;;;4.75;60.45
31088;BME280;17745;55.914;37.554;2024-01-30T12:33:49;100286.31;;;4.92;60.08
31088;BME280;17745;55.914;37.554;2024-01-30T12:36:27;100277.44;;;4.93;60.00
31088;BME280;17745;55.914;37.554;2024-01-30T12:39:37;100282.91;;;4.91;59.99
31088;BME280;17745;55.914;37.554;2024-01-30T12:42:15;100292.38;;;4.34;61.27
31088;BME280;17745;55.914;37.554;2024-01-30T12:44:51;100281.44;;;4.67;60.47
31088;BME280;17745;55.914;37.554;2024-01-30T12:47:54;100279.31;;;4.55;60.65
31088;BME280;17745;55.914;37.554;2024-01-30T12:50:30;100285.91;;;4.29;61.38
31088;BME280;17745;55.914;37.554;2024-01-30T12:53:18;100278.31;;;4.56;60.71
31088;BME280;17745;55.914;37.554;2024-01-30T12:56:05;100288.47;;;4.08;61.86
31088;BME280;17745;55.914;37.554;2024-01-30T12:58:36;100280.13;;;4.19;61.49
31088;BME280;17745;55.914;37.554;2024-01-30T13:01:08;100281.84;;;4.12;61.70
31088;BME280;17745;55.914;37.554;2024-01-30T13:06:51;100283.56;;;4.20;61.37
31088;BME280;17745;55.914;37.554;2024-01-30T13:09:53;100290.47;;;4.42;60.91
31088;BME280;17745;55.914;37.554;2024-01-30T13:13:18;100297.03;;;4.53;60.67
31088;BME280;17745;55.914;37.554;2024-01-30T13:16:23;100294.94;;;4.64;60.61
31088;BME280;17745;55.914;37.554;2024-01-30T13:19:01;100299.75;;;4.60;60.70
31088;BME280;17745;55.914;37.554;2024-01-30T13:21:39;100298.78;;;4.46;60.94
31088;BME280;17745;55.914;37.554;2024-01-30T13:24:19;100294.75;;;4.28;61.28
31088;BME280;17745;55.914;37.554;2024-01-30T13:29:49;100299.19;;;4.65;60.67
31088;BME280;17745;55.914;37.554;2024-01-30T13:32:26;100304.19;;;4.60;60.83
31088;BME280;17745;55.914;37.554;2024-01-30T13:34:55;100306.16;;;4.57;60.79
31088;BME280;17745;55.914;37.554;2024-01-30T13:37:23;100301.19;;;4.63;60.77
31088;BME280;17745;55.914;37.554;2024-01-30T13:39:55;100304.13;;;4.53;60.87
31088;BME280;17745;55.914;37.554;2024-01-30T13:42:24;100299.81;;;4.67;60.66
31088;BME280;17745;55.914;37.554;2024-01-30T13:44:51;100298.94;;;4.60;60.76
31088;BME280;17745;55.914;37.554;2024-01-30T13:47:20;100297.03;;;4.53;60.80
31088;BME280;17745;55.914;37.554;2024-01-30T13:49:49;100306.50;;;4.33;61.24
31088;BME280;17745;55.914;37.554;2024-01-30T13:52:16;100308.31;;;4.17;61.65
31088;BME280;17745;55.914;37.554;2024-01-30T13:54:46;100308.34;;;4.02;61.92
31088;BME280;17745;55.914;37.554;2024-01-30T13:57:16;100311.50;;;4.12;61.56
31088;BME280;17745;55.914;37.554;2024-01-30T13:59:44;100311.50;;;4.12;61.62
31088;BME280;17745;55.914;37.554;2024-01-30T14:02:14;100320.09;;;4.21;61.44
31088;BME280;17745;55.914;37.554;2024-01-30T14:04:43;100313.75;;;4.15;61.62
31088;BME280;17745;55.914;37.554;2024-01-30T14:07:10;100320.97;;;4.28;61.31
31088;BME280;17745;55.914;37.554;2024-01-30T14:09:38;100302.69;;;4.35;61.12
31088;BME280;17745;55.914;37.554;2024-01-30T14:12:07;100322.47;;;4.38;61.05
31088;BME280;17745;55.914;37.554;2024-01-30T14:14:45;100328.37;;;4.40;60.96
31088;BME280;17745;55.914;37.554;2024-01-30T14:17:18;100324.97;;;4.09;61.51
31088;BME280;17745;55.914;37.554;2024-01-30T14:19:52;100323.00;;;4.11;61.44
31088;BME280;17745;55.914;37.554;2024-01-30T14:22:23;100324.69;;;4.04;61.63
31088;BME280;17745;55.914;37.554;2024-01-30T14:24:53;100327.88;;;3.99;61.68
31088;BME280;17745;55.914;37.554;2024-01-30T14:27:29;100338.69;;;3.81;62.19
31088;BME280;17745;55.914;37.554;2024-01-30T14:30:00;100337.69;;;3.97;61.86
31088;BME280;17745;55.914;37.554;2024-01-30T14:32:31;100338.16;;;4.01;61.79
31088;BME280;17745;55.914;37.554;2024-01-30T14:35:04;100331.66;;;3.97;61.91
31088;BME280;17745;55.914;37.554;2024-01-30T14:37:37;100331.47;;;4.13;61.67
31088;BME280;17745;55.914;37.554;2024-01-30T14:40:09;100331.91;;;4.17;61.56
31088;BME280;17745;55.914;37.554;2024-01-30T14:42:38;100336.25;;;4.25;61.57
31088;BME280;17745;55.914;37.554;2024-01-30T14:45:08;100348.97;;;4.28;61.48
31088;BME280;17745;55.914;37.554;2024-01-30T14:47:37;100343.47;;;4.23;61.54
31088;BME280;17745;55.914;37.554;2024-01-30T14:50:06;100340.59;;;4.18;61.64
31088;BME280;17745;55.914;37.554;2024-01-30T14:52:34;100342.47;;;4.24;61.64
31088;BME280;17745;55.914;37.554;2024-01-30T14:55:02;100341.87;;;4.07;61.86
31088;BME280;17745;55.914;37.554;2024-01-30T14:57:33;100349.25;;;4.18;61.58
31088;BME280;17745;55.914;37.554;2024-01-30T15:00:04;100346.19;;;4.29;61.43
31088;BME280;17745;55.914;37.554;2024-01-30T15:02:34;100342.69;;;4.22;61.48
31088;BME280;17745;55.914;37.554;2024-01-30T15:05:02;100349.19;;;4.11;61.71
31088;BME280;17745;55.914;37.554;2024-01-30T15:07:30;100350.00;;;4.12;61.72
31088;BME280;17745;55.914;37.554;2024-01-30T15:09:58;100344.00;;;4.18;61.64
31088;BME280;17745;55.914;37.554;2024-01-30T15:12:26;100355.59;;;4.24;61.50
31088;BME280;17745;55.914;37.554;2024-01-30T15:14:54;100353.34;;;4.21;61.73
31088;BME280;17745;55.914;37.554;2024-01-30T15:17:25;100359.03;;;4.24;61.61
31088;BME280;17745;55.914;37.554;2024-01-30T15:19:54;100356.41;;;4.24;61.64
31088;BME280;17745;55.914;37.554;2024-01-30T15:22:26;100361.28;;;4.27;61.62
31088;BME280;17745;55.914;37.554;2024-01-30T15:24:54;100370.31;;;4.25;61.76
31088;BME280;17745;55.914;37.554;2024-01-30T15:27:22;100374.50;;;4.19;61.82
31088;BME280;17745;55.914;37.554;2024-01-30T15:29:50;100370.53;;;4.23;61.72
31088;BME280;17745;55.914;37.554;2024-01-30T15:32:18;100379.09;;;4.32;61.64
31088;BME280;17745;55.914;37.554;2024-01-30T15:34:46;100377.56;;;4.23;61.68
31088;BME280;17745;55.914;37.554;2024-01-30T15:37:15;100377.28;;;4.33;61.52
31088;BME280;17745;55.914;37.554;2024-01-30T15:39:48;100375.75;;;4.23;61.71
31088;BME280;17745;55.914;37.554;2024-01-30T15:42:15;100375.19;;;4.28;61.57
31088;BME280;17745;55.914;37.554;2024-01-30T15:44:43;100385.69;;;4.28;61.60
31088;BME280;17745;55.914;37.554;2024-01-30T15:47:11;100391.94;;;4.12;61.87
31088;BME280;17745;55.914;37.554;2024-01-30T15:49:38;100382.53;;;4.18;61.64
31088;BME280;17745;55.914;37.554;2024-01-30T15:52:06;100379.97;;;3.94;62.08
31088;BME280;17745;55.914;37.554;2024-01-30T15:54:41;100384.31;;;3.87;62.26
31088;BME280;17745;55.914;37.554;2024-01-30T15:57:09;100389.53;;;3.72;62.64
31088;BME280;17745;55.914;37.554;2024-01-30T15:59:37;100389.34;;;3.74;62.57
31088;BME280;17745;55.914;37.554;2024-01-30T16:02:10;100397.94;;;3.82;62.42
31088;BME280;17745;55.914;37.554;2024-01-30T16:04:41;100405.69;;;3.76;62.61
31088;BME280;17745;55.914;37.554;2024-01-30T16:07:12;100394.97;;;3.85;62.34
31088;BME280;17745;55.914;37.554;2024-01-30T16:09:45;100390.09;;;3.97;62.12
31088;BME280;17745;55.914;37.554;2024-01-30T16:12:15;100389.66;;;3.94;62.23
31088;BME280;17745;55.914;37.554;2024-01-30T16:14:47;100394.19;;;4.00;62.09
31088;BME280;17745;55.914;37.554;2024-01-30T16:17:20;100386.22;;;3.93;62.20
31088;BME280;17745;55.914;37.554;2024-01-30T16:20:11;100381.34;;;3.90;62.28
31088;BME280;17745;55.914;37.554;2024-01-30T16:22:43;100386.94;;;3.87;62.34
31088;BME280;17745;55.914;37.554;2024-01-30T16:25:28;100384.84;;;3.97;62.14
31088;BME280;17745;55.914;37.554;2024-01-30T16:28:15;100388.41;;;4.05;62.04
31088;BME280;17745;55.914;37.554;2024-01-30T16:31:25;100386.69;;;4.12;61.96
31088;BME280;17745;55.914;37.554;2024-01-30T18:46:15;100382.44;;;4.11;61.88
31088;BME280;17745;55.914;37.554;2024-01-30T18:49:04;100376.56;;;4.09;61.85
31088;BME280;17745;55.914;37.554;2024-01-30T18:55:21;100383.44;;;4.10;62.04
31088;BME280;17745;55.914;37.554;2024-01-30T20:35:44;100389.78;;;3.62;62.40
31088;BME280;17745;55.914;37.554;2024-01-30T20:38:29;100389.91;;;3.69;62.46
31088;BME280;17745;55.914;37.554;2024-01-30T20:41:17;100390.19;;;3.74;62.39
31088;BME280;17745;55.914;37.554;2024-01-30T20:43:51;100382.06;;;3.84;62.28
31088;BME280;17745;55.914;37.554;2024-01-30T20:47:03;100387.94;;;3.86;62.12
31088;BME280;17745;55.914;37.554;2024-01-30T20:49:35;100380.84;;;3.71;61.82
31088;BME280;17745;55.914;37.554;2024-01-30T20:52:05;100372.47;;;3.76;61.96
31088;BME280;17745;55.914;37.554;2024-01-30T20:54:45;100381.44;;;3.82;61.99
31088;BME280;17745;55.914;37.554;2024-01-30T20:57:13;100377.44;;;3.71;61.80